Silver Springs, Florida
Current Conditions -  °F | °C
As of 8:55 PM on Sunday 21 Dec 2014 (Local Time) from KOCF Reporting Station
Thunderstorm Thunderstorm  
Wind Chill: 64°   Ceiling: 5500
Heat Index: 64°   Visibility: 2.5mi
Dew Point: 61°   Wind: 3mph
Humidity: 88%   Direction: 100°E
Pressure: 30.04"   Gusts: NA
Location:  29.22°N, 82.06°W
Report Text: KOCF 220155Z AUTO 10003KT 2 1/2SM VCTS FEW040 BKN055 OVC090 18/16 A3004 RMK AO1 TSB32
Loading
Personal Weather Stations






























Interactive Weather Map New forecast layout! Learn more

10-Day Weather Forecast

Advertisements
Track Severe Weather on mobile